Time;durP1;ratioP1;P1;durP2;ratioP2;P2;SDS_P1;SDS_P2;PMS_P1;PMS_P2;Temp;Humidity;BMP_temperature;BMP_pressure;BME280_temperature;BME280_humidity;BME280_pressure;Samples;Min_cycle;Max_cycle;Signal;HPM_P1;HPM_P2
2020/12/03 00:00:37;;;;;;;25.90;22.80;;;3.40;99.90;;;;;;5081265;28;20526;-78
2020/12/03 00:03:10;;;;;;;26.67;21.87;;;3.30;99.90;;;;;;5081073;28;20883;-78
2020/12/03 00:05:39;;;;;;;27.40;22.10;;;3.30;99.90;;;;;;5098561;28;20789;-78
2020/12/03 00:08:07;;;;;;;25.73;22.90;;;3.30;99.90;;;;;;5101706;28;20514;-78
2020/12/03 00:10:34;;;;;;;28.57;24.27;;;3.30;99.90;;;;;;5103742;28;20466;-78
2020/12/03 00:13:12;;;;;;;27.63;21.47;;;3.30;99.90;;;;;;5095300;28;20460;-78
2020/12/03 00:15:39;;;;;;;25.47;21.40;;;3.30;99.90;;;;;;5085165;28;20472;-78
2020/12/03 00:18:07;;;;;;;28.40;24.80;;;3.30;99.90;;;;;;5083842;28;20535;-78
2020/12/03 00:20:35;;;;;;;26.40;23.03;;;3.30;99.90;;;;;;5081822;28;20465;-78
2020/12/03 00:23:04;;;;;;;27.07;22.10;;;3.30;99.90;;;;;;5082750;28;20449;-78
2020/12/03 00:25:31;;;;;;;26.20;23.03;;;3.30;99.90;;;;;;5082875;28;20511;-78
2020/12/03 00:27:58;;;;;;;26.20;23.30;;;3.30;99.90;;;;;;5082730;28;20477;-78
2020/12/03 00:30:26;;;;;;;27.87;22.33;;;3.30;99.90;;;;;;5083062;28;20905;-78
2020/12/03 00:32:54;;;;;;;27.80;23.07;;;3.30;99.90;;;;;;5083239;28;20447;-78
2020/12/03 00:35:23;;;;;;;26.43;22.50;;;3.30;99.90;;;;;;5086856;28;20460;-78
2020/12/03 00:37:51;;;;;;;26.07;21.67;;;3.30;99.90;;;;;;5081767;28;20495;-78
2020/12/03 00:40:21;;;;;;;26.67;21.90;;;3.30;99.90;;;;;;5103602;28;20482;-78
2020/12/03 00:42:48;;;;;;;26.53;22.60;;;3.30;99.90;;;;;;5099469;28;20491;-78
2020/12/03 00:45:16;;;;;;;28.47;22.37;;;3.30;99.90;;;;;;5091065;28;20524;-78
2020/12/03 00:47:43;;;;;;;27.00;23.60;;;3.30;99.90;;;;;;5082680;28;20461;-78
2020/12/03 00:50:13;;;;;;;27.23;23.80;;;3.30;99.90;;;;;;5082394;28;20479;-78
2020/12/03 00:52:41;;;;;;;27.13;23.20;;;3.30;99.90;;;;;;5083162;28;20463;-78
2020/12/03 00:55:10;;;;;;;27.90;22.50;;;3.40;99.90;;;;;;5084021;28;20433;-78
2020/12/03 00:57:39;;;;;;;26.87;22.57;;;3.40;99.90;;;;;;5082862;28;20437;-78
2020/12/03 01:00:09;;;;;;;25.50;21.93;;;3.30;99.90;;;;;;5084925;28;20475;-78
2020/12/03 01:02:36;;;;;;;28.73;23.37;;;3.30;99.90;;;;;;5091487;28;20450;-78
2020/12/03 01:05:04;;;;;;;27.03;22.80;;;3.30;99.90;;;;;;5091997;28;20448;-78
2020/12/03 01:07:31;;;;;;;29.27;23.57;;;3.30;99.90;;;;;;5105695;28;20500;-78
2020/12/03 01:09:58;;;;;;;28.53;22.50;;;3.30;99.90;;;;;;5104881;28;20460;-78
2020/12/03 01:12:25;;;;;;;26.80;23.40;;;3.30;99.90;;;;;;5106506;28;20474;-78
2020/12/03 01:14:53;;;;;;;25.20;21.93;;;3.30;99.90;;;;;;5104344;28;21062;-78
2020/12/03 01:17:20;;;;;;;30.30;24.77;;;3.30;99.90;;;;;;5103992;28;20454;-79
2020/12/03 01:19:48;;;;;;;27.23;23.10;;;3.40;99.90;;;;;;5091366;28;20571;-79
2020/12/03 01:22:15;;;;;;;30.10;23.47;;;3.30;99.90;;;;;;5082946;28;20437;-79
2020/12/03 01:24:42;;;;;;;27.50;23.90;;;3.30;99.90;;;;;;5081649;28;20528;-79
2020/12/03 01:27:10;;;;;;;28.43;23.90;;;3.30;99.90;;;;;;5081834;28;20523;-79
2020/12/03 01:29:38;;;;;;;27.57;23.33;;;3.30;99.90;;;;;;5092616;28;20570;-79
2020/12/03 01:32:06;;;;;;;28.27;25.17;;;3.30;99.90;;;;;;5103164;28;20499;-79
2020/12/03 01:34:33;;;;;;;29.13;24.17;;;3.30;99.90;;;;;;5101853;28;20444;-79
2020/12/03 01:37:00;;;;;;;28.50;24.23;;;3.30;99.90;;;;;;5102037;28;20829;-79
2020/12/03 01:39:27;;;;;;;28.70;24.10;;;3.30;99.90;;;;;;5103550;28;20434;-79
2020/12/03 01:41:55;;;;;;;26.97;23.70;;;3.30;99.90;;;;;;5103132;28;20446;-79
2020/12/03 01:44:40;;;;;;;28.90;24.57;;;3.30;99.90;;;;;;5097765;28;20456;-79
2020/12/03 01:47:16;;;;;;;28.20;22.90;;;3.30;99.90;;;;;;5086472;28;20889;-79
2020/12/03 01:49:43;;;;;;;30.00;25.03;;;3.30;99.90;;;;;;5080798;28;20464;-79
2020/12/03 01:52:10;;;;;;;27.67;23.13;;;3.30;99.90;;;;;;5081433;28;20448;-79
2020/12/03 01:54:37;;;;;;;31.03;25.23;;;3.30;99.90;;;;;;5083482;28;20527;-79
2020/12/03 01:57:51;;;;;;;31.47;25.20;;;3.30;99.90;;;;;;5081809;28;20452;-79
2020/12/03 02:00:19;;;;;;;28.00;21.87;;;3.40;99.90;;;;;;5054443;28;20483;-79
2020/12/03 02:02:51;;;;;;;30.65;24.35;;;3.30;99.90;;;;;;5088484;28;20470;-79
2020/12/03 02:05:20;;;;;;;32.83;24.63;;;3.50;99.90;;;;;;5089171;28;20230;-79
2020/12/03 02:07:48;;;;;;;31.10;24.53;;;3.50;99.90;;;;;;5095753;28;20464;-79
2020/12/03 02:10:17;;;;;;;26.83;23.93;;;3.40;99.90;;;;;;5100502;28;20468;-79
2020/12/03 02:12:45;;;;;;;29.97;23.07;;;3.40;99.90;;;;;;5101305;28;20452;-78
2020/12/03 02:15:14;;;;;;;30.00;25.40;;;3.40;99.90;;;;;;5100649;28;20833;-78
2020/12/03 02:17:41;;;;;;;29.87;23.37;;;3.40;99.90;;;;;;5101046;28;20575;-78
2020/12/03 02:20:12;;;;;;;27.63;22.83;;;3.40;99.90;;;;;;5102963;28;20448;-78
2020/12/03 02:22:39;;;;;;;28.40;24.67;;;3.40;99.90;;;;;;5102462;28;20937;-78
2020/12/03 02:25:08;;;;;;;30.43;24.30;;;3.40;99.90;;;;;;5101659;28;20870;-78
2020/12/03 02:27:37;;;;;;;31.23;25.30;;;3.40;99.90;;;;;;5101701;28;20467;-78
2020/12/03 02:30:05;;;;;;;31.50;26.50;;;3.40;99.90;;;;;;5085539;28;20565;-78
2020/12/03 02:32:33;;;;;;;32.47;25.97;;;3.40;99.90;;;;;;5097196;28;20455;-78
2020/12/03 02:35:00;;;;;;;27.60;22.93;;;3.40;99.90;;;;;;5106811;28;20507;-78
2020/12/03 02:37:28;;;;;;;31.30;26.97;;;3.40;99.90;;;;;;5106959;28;20470;-78
2020/12/03 02:39:55;;;;;;;31.90;26.17;;;3.40;99.90;;;;;;5104976;28;20463;-78
2020/12/03 02:42:23;;;;;;;34.87;28.90;;;3.40;99.90;;;;;;5106575;28;20828;-78
2020/12/03 02:44:52;;;;;;;33.83;26.07;;;3.50;99.90;;;;;;5094766;28;20461;-78
2020/12/03 02:47:21;;;;;;;30.80;24.13;;;3.50;99.90;;;;;;5086114;28;20456;-78
2020/12/03 02:49:49;;;;;;;35.70;27.60;;;3.50;99.90;;;;;;5086424;28;20467;-78
2020/12/03 02:52:21;;;;;;;33.37;26.70;;;3.50;99.90;;;;;;5086574;28;20453;-78
2020/12/03 02:54:51;;;;;;;32.00;25.10;;;3.50;99.90;;;;;;5088286;28;20456;-79
2020/12/03 02:57:19;;;;;;;29.53;25.30;;;3.50;99.90;;;;;;5087770;28;20452;-79
2020/12/03 02:59:47;;;;;;;36.20;26.87;;;3.50;99.90;;;;;;5089381;28;20465;-79
2020/12/03 03:02:15;;;;;;;34.50;26.63;;;3.50;99.90;;;;;;5094472;28;21055;-79
2020/12/03 03:04:42;;;;;;;33.37;28.10;;;3.50;99.90;;;;;;5082844;28;20459;-79
2020/12/03 03:07:09;;;;;;;34.77;26.37;;;3.50;99.90;;;;;;5084496;28;20455;-79
2020/12/03 03:09:36;;;;;;;35.70;27.57;;;3.50;99.90;;;;;;5084551;28;20455;-79
2020/12/03 03:12:04;;;;;;;34.70;27.43;;;3.50;99.90;;;;;;5083446;28;20896;-79
2020/12/03 03:14:32;;;;;;;36.23;29.00;;;3.50;99.90;;;;;;5083744;28;20821;-79
2020/12/03 03:16:59;;;;;;;32.30;26.83;;;3.50;99.90;;;;;;5085759;28;20447;-79
2020/12/03 03:19:26;;;;;;;33.30;26.43;;;3.50;99.90;;;;;;5084384;28;20466;-79
2020/12/03 03:21:54;;;;;;;35.50;26.90;;;3.50;99.90;;;;;;5085299;28;20441;-79
2020/12/03 03:24:21;;;;;;;35.73;28.00;;;3.50;99.90;;;;;;5085679;28;20520;-79
2020/12/03 03:26:48;;;;;;;36.80;27.13;;;3.50;99.90;;;;;;5083782;28;20544;-79
2020/12/03 03:29:16;;;;;;;39.67;29.20;;;3.50;99.90;;;;;;5084999;28;20496;-79
2020/12/03 03:31:43;;;;;;;37.73;29.97;;;3.60;99.90;;;;;;5084776;28;20453;-79
2020/12/03 03:34:11;;;;;;;37.00;29.40;;;3.50;99.90;;;;;;5083407;28;20543;-79
2020/12/03 03:36:38;;;;;;;39.57;28.87;;;3.50;99.90;;;;;;5084696;28;20467;-79
2020/12/03 03:39:06;;;;;;;36.53;26.50;;;3.60;99.90;;;;;;5082852;28;20460;-79
2020/12/03 03:41:34;;;;;;;37.87;30.30;;;3.50;99.90;;;;;;5084449;28;20834;-79
2020/12/03 03:44:01;;;;;;;37.10;28.57;;;3.60;99.90;;;;;;5083796;28;20540;-79
2020/12/03 03:46:29;;;;;;;36.80;29.07;;;3.60;99.90;;;;;;5084652;28;20444;-79
2020/12/03 03:48:56;;;;;;;36.80;30.03;;;3.60;99.90;;;;;;5085128;28;20469;-79
2020/12/03 03:51:23;;;;;;;42.97;28.70;;;3.60;99.90;;;;;;5084406;28;20481;-79
2020/12/03 03:53:50;;;;;;;38.03;29.30;;;3.60;99.90;;;;;;5085557;28;20548;-79
2020/12/03 03:56:17;;;;;;;34.07;27.77;;;3.60;99.90;;;;;;5087287;28;20453;-79
2020/12/03 03:58:44;;;;;;;36.00;25.67;;;3.60;99.90;;;;;;5086041;28;20475;-79
2020/12/03 04:01:11;;;;;;;36.87;27.80;;;3.60;99.90;;;;;;5083943;28;20457;-79
2020/12/03 04:03:39;;;;;;;35.30;28.10;;;3.60;99.90;;;;;;5083487;28;20513;-79
2020/12/03 04:06:06;;;;;;;38.87;27.57;;;3.60;99.90;;;;;;5083391;28;21044;-79
2020/12/03 04:08:33;;;;;;;35.33;27.70;;;3.60;99.90;;;;;;5084246;28;20568;-79
2020/12/03 04:11:00;;;;;;;36.47;28.80;;;3.60;99.90;;;;;;5090060;28;20472;-79
2020/12/03 04:13:27;;;;;;;37.03;29.67;;;3.60;99.90;;;;;;5096944;28;20449;-79
2020/12/03 04:15:54;;;;;;;41.20;29.67;;;3.60;99.90;;;;;;5091276;28;20838;-79
2020/12/03 04:18:26;;;;;;;35.10;27.70;;;3.70;99.90;;;;;;5094563;28;20536;-79
2020/12/03 04:20:56;;;;;;;37.77;29.63;;;3.70;99.90;;;;;;5101719;28;20484;-79
2020/12/03 04:23:23;;;;;;;37.77;29.70;;;3.70;99.90;;;;;;5105984;28;20875;-79
2020/12/03 04:25:51;;;;;;;39.17;31.20;;;3.70;99.90;;;;;;5104694;28;20456;-79
2020/12/03 04:28:19;;;;;;;34.60;26.63;;;3.70;99.90;;;;;;5106496;28;20476;-79
2020/12/03 04:30:47;;;;;;;34.53;28.83;;;3.70;99.90;;;;;;5105868;28;20460;-79
2020/12/03 04:33:14;;;;;;;36.60;27.70;;;3.70;99.90;;;;;;5105757;28;20467;-79
2020/12/03 04:35:41;;;;;;;40.53;29.27;;;3.70;99.90;;;;;;5105256;28;20439;-79
2020/12/03 04:38:10;;;;;;;37.50;28.80;;;3.80;99.90;;;;;;5106104;28;20186;-79
2020/12/03 04:40:40;;;;;;;39.47;30.67;;;3.80;99.90;;;;;;5099038;28;20472;-78
2020/12/03 04:43:17;;;;;;;39.10;31.23;;;3.80;99.90;;;;;;5099408;28;20506;-78
2020/12/03 04:45:51;;;;;;;37.50;29.70;;;3.80;99.90;;;;;;5083626;28;20966;-78
2020/12/03 04:48:46;;;;;;;36.77;27.73;;;3.80;99.90;;;;;;5083081;28;20469;-78
2020/12/03 04:51:33;;;;;;;36.87;28.17;;;3.80;99.90;;;;;;5083041;28;20511;-78
2020/12/03 04:54:18;;;;;;;35.83;29.47;;;3.80;99.90;;;;;;5100031;28;20524;-78
2020/12/03 04:56:54;;;;;;;34.00;27.60;;;3.80;99.90;;;;;;5083004;28;20859;-78
2020/12/03 04:59:39;;;;;;;38.67;29.43;;;3.80;99.90;;;;;;5081853;28;20859;-78
2020/12/03 05:02:20;;;;;;;37.73;27.73;;;3.80;99.90;;;;;;5078177;28;20528;-78
2020/12/03 05:04:58;;;;;;;34.57;25.43;;;3.80;99.90;;;;;;5076734;28;20437;-78
2020/12/03 05:07:29;;;;;;;35.10;26.40;;;3.80;99.90;;;;;;5078602;28;20480;-78
2020/12/03 05:10:01;;;;;;;34.97;29.00;;;3.80;99.90;;;;;;5080030;28;20465;-78
2020/12/03 05:12:31;;;;;;;36.53;27.53;;;3.80;99.90;;;;;;5094772;28;20477;-78
2020/12/03 05:15:05;;;;;;;36.73;28.37;;;3.80;99.90;;;;;;5081005;28;20480;-78
2020/12/03 05:17:42;;;;;;;33.50;27.77;;;3.90;99.90;;;;;;5081704;28;20513;-78
2020/12/03 05:20:29;;;;;;;33.27;27.00;;;3.90;99.90;;;;;;5080179;28;21064;-78
2020/12/03 05:23:15;;;;;;;38.20;28.47;;;3.90;99.90;;;;;;5081436;28;20445;-78
2020/12/03 05:25:44;;;;;;;38.80;28.50;;;3.90;99.90;;;;;;5080588;28;20508;-78
2020/12/03 05:28:51;;;;;;;31.17;27.40;;;3.90;99.90;;;;;;5080460;28;20471;-78
2020/12/03 05:31:30;;;;;;;30.93;26.17;;;3.90;99.90;;;;;;5020302;28;20475;-78
2020/12/03 05:34:00;;;;;;;36.93;27.07;;;3.90;99.90;;;;;;5091479;28;20452;-78
2020/12/03 05:36:34;;;;;;;33.40;27.33;;;3.90;99.90;;;;;;5081780;28;20429;-78
2020/12/03 05:39:04;;;;;;;32.03;28.10;;;3.90;99.90;;;;;;5089434;28;20472;-78
2020/12/03 05:41:36;;;;;;;33.73;25.70;;;3.90;99.90;;;;;;5101972;28;20455;-78
2020/12/03 05:44:20;;;;;;;35.90;27.57;;;3.90;99.90;;;;;;5101253;28;20432;-78
2020/12/03 05:46:49;;;;;;;33.80;26.40;;;3.90;99.90;;;;;;5102194;28;20500;-78
2020/12/03 05:49:20;;;;;;;34.97;28.67;;;3.90;99.90;;;;;;5100803;28;20478;-78
2020/12/03 05:52:05;;;;;;;36.07;30.07;;;3.90;99.90;;;;;;5101435;28;20446;-78
2020/12/03 05:54:32;;;;;;;33.90;27.80;;;3.90;99.90;;;;;;5097812;28;20458;-78
2020/12/03 05:57:00;;;;;;;31.83;26.07;;;4.00;99.90;;;;;;5100372;28;20452;-78
2020/12/03 05:59:27;;;;;;;34.37;27.97;;;4.00;99.90;;;;;;5082795;28;20501;-78
2020/12/03 06:02:17;;;;;;;32.67;26.17;;;4.00;99.90;;;;;;5082165;28;20445;-78
2020/12/03 06:04:49;;;;;;;36.30;28.80;;;4.00;99.90;;;;;;5086550;28;20493;-78
2020/12/03 06:07:46;;;;;;;32.43;27.50;;;4.00;99.90;;;;;;5084843;28;20463;-78
2020/12/03 06:10:26;;;;;;;34.00;29.47;;;4.00;99.90;;;;;;5080124;28;20559;-78
2020/12/03 06:13:15;;;;;;;34.77;27.27;;;4.00;99.90;;;;;;5089778;28;20439;-79
2020/12/03 06:15:48;;;;;;;35.70;28.33;;;4.00;99.90;;;;;;5104441;28;20452;-79
2020/12/03 06:18:44;;;;;;;34.23;29.13;;;4.10;99.90;;;;;;5084598;28;20487;-79
2020/12/03 06:21:28;;;;;;;37.37;28.60;;;4.10;99.90;;;;;;5068048;28;20480;-79
2020/12/03 06:24:12;;;;;;;35.77;28.20;;;4.10;99.90;;;;;;5100449;28;20855;-79
2020/12/03 06:26:55;;;;;;;33.30;26.20;;;4.10;99.90;;;;;;5098641;28;20444;-79
2020/12/03 06:29:37;;;;;;;35.37;29.03;;;4.10;99.90;;;;;;5093870;28;20478;-79
2020/12/03 06:32:24;;;;;;;34.00;25.30;;;4.10;99.90;;;;;;5085459;28;20460;-78
2020/12/03 06:34:57;;;;;;;35.30;28.00;;;4.10;99.90;;;;;;5085479;28;20439;-78
2020/12/03 06:37:32;;;;;;;35.10;27.23;;;4.10;99.90;;;;;;5090525;28;20549;-78
2020/12/03 06:40:04;;;;;;;32.37;26.43;;;4.10;99.90;;;;;;5101420;28;20477;-78
2020/12/03 06:42:40;;;;;;;34.30;27.80;;;4.10;99.90;;;;;;5103458;28;20443;-78
2020/12/03 06:45:22;;;;;;;34.10;27.87;;;4.10;99.90;;;;;;5104988;28;20451;-78
2020/12/03 06:48:21;;;;;;;35.00;26.10;;;4.10;99.90;;;;;;5103452;28;20529;-78
2020/12/03 06:51:02;;;;;;;39.63;29.23;;;4.10;99.90;;;;;;5103806;28;20523;-78
2020/12/03 06:54:05;;;;;;;34.83;27.80;;;4.10;99.90;;;;;;5092737;28;20461;-78
2020/12/03 06:57:06;;;;;;;40.20;30.90;;;4.10;99.90;;;;;;5108200;28;20850;-78
2020/12/03 06:59:54;;;;;;;37.80;27.77;;;4.20;99.90;;;;;;5105978;28;20914;-78
2020/12/03 07:02:58;;;;;;;38.77;29.50;;;4.20;99.90;;;;;;5106883;28;20182;-78
2020/12/03 07:05:58;;;;;;;36.40;28.50;;;4.20;99.90;;;;;;5076964;28;21013;-78
2020/12/03 07:09:09;;;;;;;39.10;28.42;;;4.20;99.90;;;;;;5100183;28;20437;-78
2020/12/03 07:11:59;;;;;;;37.47;28.37;;;4.20;99.90;;;;;;5052104;28;20253;-78
2020/12/03 07:15:03;;;;;;;42.83;30.47;;;4.20;99.90;;;;;;5080979;28;20544;-78
2020/12/03 07:18:04;;;;;;;38.43;28.00;;;4.20;99.90;;;;;;5081335;28;20475;-78
2020/12/03 07:20:52;;;;;;;42.57;31.40;;;4.20;99.90;;;;;;5081827;28;20554;-78
2020/12/03 07:23:33;;;;;;;36.33;26.77;;;4.10;99.90;;;;;;5082037;28;20496;-78
2020/12/03 07:26:05;;;;;;;35.70;27.47;;;4.20;99.90;;;;;;5080637;28;20437;-78
2020/12/03 07:28:36;;;;;;;37.93;27.63;;;4.20;99.90;;;;;;5081944;28;20461;-78
2020/12/03 07:31:13;;;;;;;40.80;28.67;;;4.20;99.90;;;;;;5082438;28;20507;-78
2020/12/03 07:33:59;;;;;;;42.30;29.40;;;4.20;99.90;;;;;;5084798;28;20527;-78
2020/12/03 07:36:36;;;;;;;35.83;27.87;;;4.20;99.90;;;;;;5088861;28;20441;-79
2020/12/03 07:39:08;;;;;;;42.87;29.30;;;4.20;99.90;;;;;;5078606;28;20508;-79
2020/12/03 07:41:47;;;;;;;35.80;26.37;;;4.20;99.90;;;;;;5077987;28;20465;-79
2020/12/03 07:44:33;;;;;;;38.97;25.23;;;4.20;99.90;;;;;;5078914;28;20456;-79
2020/12/03 07:47:30;;;;;;;36.00;27.00;;;4.10;99.90;;;;;;5079290;28;21014;-79
2020/12/03 07:50:00;;;;;;;35.10;27.80;;;4.20;99.90;;;;;;5078991;28;20477;-79
2020/12/03 07:52:30;;;;;;;33.40;24.80;;;4.20;99.90;;;;;;5078900;28;20444;-79
2020/12/03 07:55:29;;;;;;;36.17;28.30;;;4.20;99.90;;;;;;5079013;28;20457;-79
2020/12/03 07:57:59;;;;;;;35.63;26.33;;;4.20;99.90;;;;;;5081097;28;20491;-79
2020/12/03 08:00:46;;;;;;;33.63;25.20;;;4.20;99.90;;;;;;5080246;28;20460;-79
2020/12/03 08:03:46;;;;;;;35.80;26.40;;;4.20;99.90;;;;;;5101684;28;20456;-79
2020/12/03 08:06:22;;;;;;;32.63;24.63;;;4.20;99.90;;;;;;5100949;28;20437;-79
2020/12/03 08:08:52;;;;;;;34.73;25.70;;;4.20;99.90;;;;;;5100322;28;20490;-79
2020/12/03 08:11:44;;;;;;;34.90;27.10;;;4.20;99.90;;;;;;5099688;28;20510;-79
2020/12/03 08:14:51;;;;;;;40.53;30.90;;;4.20;99.90;;;;;;5094396;28;20457;-79
2020/12/03 08:17:47;;;;;;;33.33;25.27;;;4.20;99.90;;;;;;5095763;28;20825;-79
2020/12/03 08:20:40;;;;;;;33.13;26.10;;;4.20;99.90;;;;;;5099340;28;20867;-79
2020/12/03 08:23:11;;;;;;;39.03;29.83;;;4.20;99.90;;;;;;5100651;28;21005;-78
2020/12/03 08:25:44;;;;;;;33.27;26.40;;;4.20;99.90;;;;;;5098267;28;20500;-78
2020/12/03 08:28:20;;;;;;;37.93;26.90;;;4.30;99.90;;;;;;5102989;28;20817;-78
2020/12/03 08:30:51;;;;;;;40.87;29.93;;;4.30;99.90;;;;;;5101324;28;20467;-78
2020/12/03 08:33:27;;;;;;;33.90;25.63;;;4.30;99.90;;;;;;5101433;28;20448;-78
2020/12/03 08:35:56;;;;;;;41.80;29.13;;;4.30;99.90;;;;;;5100515;28;20422;-78
2020/12/03 08:38:27;;;;;;;34.53;25.30;;;4.30;99.90;;;;;;5100730;28;20439;-78
2020/12/03 08:40:57;;;;;;;35.87;28.17;;;4.30;99.90;;;;;;5098961;28;20877;-78
2020/12/03 08:43:26;;;;;;;33.67;28.30;;;4.30;99.90;;;;;;5099534;28;20488;-78
2020/12/03 08:46:00;;;;;;;34.97;26.90;;;4.30;99.90;;;;;;5100140;28;21012;-78
2020/12/03 08:48:32;;;;;;;38.97;27.47;;;4.30;99.90;;;;;;5094884;28;20452;-78
2020/12/03 08:51:03;;;;;;;36.00;27.30;;;4.30;99.90;;;;;;5099144;28;20456;-78
2020/12/03 08:53:31;;;;;;;35.77;26.43;;;4.40;99.90;;;;;;5097839;28;20969;-78
2020/12/03 08:56:10;;;;;;;38.37;28.47;;;4.40;99.90;;;;;;5095703;28;20444;-78
2020/12/03 08:58:42;;;;;;;42.90;35.30;;;4.40;99.90;;;;;;5096675;28;20423;-78
2020/12/03 09:01:09;;;;;;;34.63;26.73;;;4.40;99.90;;;;;;5096446;28;20473;-78
2020/12/03 09:03:38;;;;;;;37.30;26.77;;;4.40;99.90;;;;;;5096457;28;20446;-78
2020/12/03 09:06:08;;;;;;;39.13;28.30;;;4.40;99.90;;;;;;5082058;28;20571;-78
2020/12/03 09:08:35;;;;;;;33.97;26.67;;;4.50;99.90;;;;;;5079091;28;20544;-78
2020/12/03 09:11:02;;;;;;;32.73;26.23;;;4.50;99.90;;;;;;5093995;28;20965;-78
2020/12/03 09:13:30;;;;;;;34.13;26.90;;;4.50;99.90;;;;;;5101746;28;20436;-78
2020/12/03 09:15:59;;;;;;;35.17;28.00;;;4.50;99.90;;;;;;5100121;28;20538;-78
2020/12/03 09:18:26;;;;;;;35.80;28.57;;;4.60;99.90;;;;;;5101847;28;20437;-78
2020/12/03 09:20:54;;;;;;;35.40;26.60;;;4.60;99.90;;;;;;5098759;28;20452;-78
2020/12/03 09:23:23;;;;;;;36.97;28.13;;;4.70;99.90;;;;;;5080036;28;20811;-78
2020/12/03 09:25:50;;;;;;;35.43;28.17;;;4.70;99.90;;;;;;5080674;28;20494;-78
2020/12/03 09:28:19;;;;;;;34.47;26.53;;;4.80;99.90;;;;;;5089331;28;20440;-78
2020/12/03 09:30:52;;;;;;;32.58;24.85;;;4.80;99.90;;;;;;5079182;28;20521;-78
2020/12/03 09:33:23;;;;;;;33.40;25.00;;;5.00;99.90;;;;;;5093922;28;20224;-78
2020/12/03 09:35:51;;;;;;;35.00;27.37;;;5.00;99.90;;;;;;5101155;28;20796;-79
2020/12/03 09:38:20;;;;;;;33.73;25.87;;;5.00;99.90;;;;;;5099849;28;20452;-79
2020/12/03 09:40:49;;;;;;;34.03;26.30;;;5.00;99.90;;;;;;5099306;28;20872;-79
2020/12/03 09:43:20;;;;;;;29.70;23.87;;;5.00;99.90;;;;;;5099433;28;20432;-79
2020/12/03 09:45:54;;;;;;;31.20;25.63;;;5.00;99.90;;;;;;5092019;28;20513;-79
2020/12/03 09:48:22;;;;;;;31.53;26.40;;;5.00;99.90;;;;;;5083718;28;20457;-79
2020/12/03 09:50:50;;;;;;;26.17;23.37;;;5.00;99.90;;;;;;5079949;28;20518;-79
2020/12/03 09:53:18;;;;;;;31.47;25.03;;;5.10;99.90;;;;;;5079817;28;20459;-79
2020/12/03 09:55:47;;;;;;;27.83;23.23;;;5.10;99.90;;;;;;5079612;28;20443;-79
2020/12/03 09:58:18;;;;;;;28.43;25.20;;;5.10;99.90;;;;;;5079954;28;20459;-79
2020/12/03 10:00:47;;;;;;;30.33;23.97;;;5.10;99.90;;;;;;5084639;28;20460;-79
2020/12/03 10:04:11;;;;;;;29.87;25.47;;;5.10;99.90;;;;;;5100119;28;20440;-79
2020/12/03 10:06:46;;;;;;;32.87;26.03;;;5.20;99.90;;;;;;5078237;28;20932;-79
2020/12/03 10:09:28;;;;;;;29.90;25.33;;;5.20;99.90;;;;;;5079831;28;20551;-79
2020/12/03 10:12:24;;;;;;;28.30;25.07;;;5.20;99.90;;;;;;5095167;28;20503;-79
2020/12/03 10:15:13;;;;;;;26.50;23.60;;;5.20;99.90;;;;;;5078175;28;20966;-79
2020/12/03 10:17:59;;;;;;;27.00;23.27;;;5.20;99.90;;;;;;5093804;28;20457;-79
2020/12/03 10:20:27;;;;;;;27.53;23.83;;;5.20;99.90;;;;;;5062932;28;20461;-79
2020/12/03 10:23:04;;;;;;;28.57;23.80;;;5.20;99.90;;;;;;5077984;28;20522;-79
2020/12/03 10:25:34;;;;;;;25.43;22.73;;;5.20;99.90;;;;;;5079952;28;20440;-79
2020/12/03 10:28:14;;;;;;;26.40;23.30;;;5.30;99.90;;;;;;5078477;28;20484;-79
2020/12/03 10:30:42;;;;;;;26.03;21.90;;;5.30;99.90;;;;;;5078462;28;20476;-79
2020/12/03 10:33:15;;;;;;;26.00;22.40;;;5.30;99.90;;;;;;5079139;28;20463;-79
2020/12/03 10:35:44;;;;;;;28.43;23.30;;;5.30;99.90;;;;;;5090931;28;20466;-79
2020/12/03 10:38:18;;;;;;;24.30;21.40;;;5.30;99.90;;;;;;5098807;28;20860;-78
2020/12/03 10:40:50;;;;;;;25.73;22.60;;;5.30;99.90;;;;;;5099660;28;20463;-78
2020/12/03 10:43:25;;;;;;;26.10;23.27;;;5.30;99.90;;;;;;5097988;28;20436;-78
2020/12/03 10:45:56;;;;;;;26.40;23.57;;;5.40;99.90;;;;;;5098827;28;20516;-78
2020/12/03 10:48:27;;;;;;;29.30;23.27;;;5.40;99.90;;;;;;5100900;28;20483;-78
2020/12/03 10:50:58;;;;;;;25.30;22.23;;;5.40;99.90;;;;;;5102535;28;20478;-78
2020/12/03 10:53:27;;;;;;;24.50;20.60;;;5.50;99.90;;;;;;5103747;28;20477;-78
2020/12/03 10:55:58;;;;;;;23.87;20.73;;;5.50;99.90;;;;;;5102265;28;20448;-79
2020/12/03 10:58:40;;;;;;;24.07;20.40;;;5.50;99.90;;;;;;5084759;28;20443;-79
2020/12/03 11:01:12;;;;;;;24.63;22.00;;;5.50;99.90;;;;;;5094536;28;20471;-78
2020/12/03 11:03:41;;;;;;;24.17;21.17;;;5.50;99.90;;;;;;5104799;28;20443;-78
2020/12/03 11:06:10;;;;;;;22.63;20.13;;;5.50;99.90;;;;;;5082034;28;20440;-78
2020/12/03 11:08:38;;;;;;;23.47;20.30;;;5.50;99.90;;;;;;5082658;28;20868;-78
2020/12/03 11:11:07;;;;;;;25.70;22.90;;;5.50;99.90;;;;;;5077759;28;20477;-78
2020/12/03 11:13:36;;;;;;;22.90;20.40;;;5.60;99.90;;;;;;5080331;28;20453;-78
2020/12/03 11:16:05;;;;;;;23.83;21.30;;;5.60;99.90;;;;;;5088541;28;20568;-78
2020/12/03 11:18:42;;;;;;;26.00;19.60;;;5.60;99.90;;;;;;5102971;28;20435;-78
2020/12/03 11:21:16;;;;;;;23.10;20.37;;;5.60;99.90;;;;;;5101744;28;20464;-78
2020/12/03 11:23:57;;;;;;;22.87;19.83;;;5.60;99.90;;;;;;5099446;28;20448;-78
2020/12/03 11:26:29;;;;;;;22.63;18.40;;;5.60;99.90;;;;;;5101265;28;20446;-78
2020/12/03 11:29:09;;;;;;;21.30;19.00;;;5.50;99.90;;;;;;5100481;28;20479;-78
2020/12/03 11:31:36;;;;;;;21.70;17.40;;;5.60;99.90;;;;;;5096906;28;20566;-78
2020/12/03 11:34:04;;;;;;;20.97;18.20;;;5.60;99.90;;;;;;5092142;28;20522;-78
2020/12/03 11:36:36;;;;;;;20.60;18.10;;;5.50;99.90;;;;;;5082570;28;20919;-78
2020/12/03 11:39:05;;;;;;;19.80;17.70;;;5.60;99.90;;;;;;5091956;28;20440;-79
2020/12/03 11:41:42;;;;;;;21.50;18.80;;;5.60;99.90;;;;;;5091291;28;20477;-79
2020/12/03 11:47:39;;;;;;;20.10;17.87;;;5.60;99.90;;;;;;5086791;28;20459;-79
2020/12/03 11:50:19;;;;;;;21.70;18.57;;;5.60;99.90;;;;;;5083333;28;20491;-79
2020/12/03 11:52:46;;;;;;;21.35;18.83;;;5.60;99.90;;;;;;5100654;28;20444;-79
2020/12/03 11:55:18;;;;;;;22.53;18.47;;;5.60;99.90;;;;;;5088099;28;20191;-79
2020/12/03 11:57:46;;;;;;;21.83;18.67;;;5.60;99.90;;;;;;5095223;28;20456;-79
2020/12/03 12:00:18;;;;;;;19.70;17.60;;;5.60;99.90;;;;;;5101865;28;20915;-79
2020/12/03 12:02:45;;;;;;;23.70;19.93;;;5.60;99.90;;;;;;5098600;28;20516;-79
2020/12/03 12:05:21;;;;;;;20.07;17.97;;;5.60;99.90;;;;;;5099875;28;20440;-79
2020/12/03 12:08:01;;;;;;;23.90;19.00;;;5.60;99.90;;;;;;5099155;28;20897;-79
2020/12/03 12:10:31;;;;;;;21.60;18.77;;;5.60;99.90;;;;;;5092729;28;20894;-79
2020/12/03 12:12:59;;;;;;;20.77;18.57;;;5.50;99.90;;;;;;5080860;28;20425;-79
2020/12/03 12:15:27;;;;;;;19.90;17.80;;;5.60;99.90;;;;;;5081467;28;20564;-79
2020/12/03 12:17:54;;;;;;;19.73;17.20;;;5.60;99.90;;;;;;5079003;28;20480;-79
2020/12/03 12:20:23;;;;;;;21.20;19.00;;;5.60;99.90;;;;;;5081509;28;20450;-79
2020/12/03 12:22:50;;;;;;;21.40;18.60;;;5.60;99.90;;;;;;5095480;28;20491;-79
2020/12/03 12:25:17;;;;;;;21.80;18.13;;;5.60;99.90;;;;;;5081485;28;20532;-79
2020/12/03 12:27:44;;;;;;;19.00;16.90;;;5.60;99.90;;;;;;5081676;28;20931;-79
2020/12/03 12:30:11;;;;;;;20.57;17.70;;;5.70;99.90;;;;;;5082721;28;20471;-78
2020/12/03 12:32:39;;;;;;;20.37;18.13;;;5.70;99.90;;;;;;5089366;28;20443;-78
2020/12/03 12:35:06;;;;;;;20.37;17.93;;;5.70;99.90;;;;;;5078269;28;20441;-79
2020/12/03 12:37:34;;;;;;;21.00;17.73;;;5.70;99.90;;;;;;5077781;28;20497;-79
2020/12/03 12:40:01;;;;;;;19.30;17.13;;;5.70;99.90;;;;;;5077585;28;20519;-79
2020/12/03 12:42:29;;;;;;;22.93;18.97;;;5.70;99.90;;;;;;5077988;28;20973;-79
2020/12/03 12:44:56;;;;;;;21.53;17.90;;;5.70;99.90;;;;;;5077167;28;20444;-79
2020/12/03 12:47:24;;;;;;;20.77;17.40;;;5.70;99.90;;;;;;5077400;28;20499;-79
2020/12/03 12:49:53;;;;;;;21.30;19.10;;;5.70;99.90;;;;;;5109439;28;20527;-79
2020/12/03 12:52:20;;;;;;;19.53;17.03;;;5.70;99.90;;;;;;5077361;28;20441;-79
2020/12/03 12:54:47;;;;;;;19.80;17.10;;;5.70;99.90;;;;;;5079254;28;20446;-79
2020/12/03 12:57:19;;;;;;;23.57;17.27;;;5.80;99.90;;;;;;5096786;28;20472;-79
2020/12/03 12:59:46;;;;;;;20.90;17.23;;;5.80;99.90;;;;;;5098290;28;20459;-79
2020/12/03 13:02:14;;;;;;;19.30;16.90;;;5.80;99.90;;;;;;5081097;28;20957;-79
2020/12/03 13:04:44;;;;;;;20.43;16.90;;;5.80;99.90;;;;;;5077848;28;20927;-80
2020/12/03 13:07:12;;;;;;;20.43;17.27;;;5.80;99.90;;;;;;5076259;28;20441;-79
2020/12/03 13:09:40;;;;;;;19.13;16.70;;;5.80;99.90;;;;;;5077357;28;20494;-79